Tiempo atmosférico en la estación meteorológica de San Bartolome Tirajana, Las Tirajanas, Las Palmas (960 m.)



Fecha
DESCASC
Temp. máxima en grados centígrados (hora)
DESCASC
Temp. mínima en grados centígrados (hora)
DESCASC
Temp. media en grados centígrados
DESCASC
Racha de viento máxima en m/sg (hora)
DESCASC
Velocidad máxima media en intervalos de 10 minutos(hora)
DESCASC
Precipitaciones diarias en mm
DESCASC
Precipitaciones de 00:00 a 06:00 en mm
DESCASC
Precipitaciones de 06:00 a 12:00 en mm
DESCASC
Precipitaciones de 12:00 a 18:00 en mm
DESCASC
Precipitaciones de 18:00 a 24:00 en mm
DESCASC
18-08-2019 37.2 (13:00) 31.1 (23:59) 34.2 17.5 (21:50) 10.83 (22:30) 0 0 0 0 0
17-08-2019 38.2 (15:50) 30.1 (04:40) 34.2 15 (12:30) 10 (12:30) 0 0 0 0 0
16-08-2019 41.1 (14:30) 26 (03:00) 33.5 7.78 (23:59) 4.17 (23:59) 0 0 0 0 0
15-08-2019 35.1 (15:00) 21.8 (00:00) 28.4 5.28 (13:00) 2.22 (11:40) 0 0 0 0 0
14-08-2019 31.3 (16:20) 19.2 (00:00) 25.3 5.56 (15:40) 2.22 (12:50) 0 0 0 0 0
13-08-2019 32.1 (13:20) 20.3 (00:00) 26.2 9.17 (01:20) 3.33 (03:00) 0 0 0 0 0
12-08-2019 32 (15:10) 22.6 (00:00) 27.3 11.39 (06:40) 4.44 (03:00) 0 0 0 0 0
11-08-2019 33.8 (13:20) 22.3 (00:00) 28 8.06 (23:40) 3.33 (23:40) 0 0 0 0 0
10-08-2019 33.1 (13:30) 23.7 (00:00) 28.4 5.56 (14:50) 2.5 (14:00) 0 0 0 0 0
09-08-2019 33.8 (14:20) 23.8 (00:00) 28.8 5.28 (09:30) 2.5 (09:20) 0 0 0 0 0
08-08-2019 33.1 (13:20) 20.6 (00:00) 26.8 4.72 (13:30) 1.94 (14:40) 0 0 0 0 0
07-08-2019 31.1 (14:30) 19.1 (00:00) 25.1 5.28 (14:00) 2.22 (12:50) 0 0 0 0 0
06-08-2019 31 (15:40) 18 (00:00) 24.5 6.11 (16:00) 1.94 (12:40) 0 0 0 0 0
05-08-2019 28.2 (15:10) 14.9 (00:00) 21.6 11.39 (14:20) 6.11 (14:30) 0 0 0 0 0
04-08-2019 28.1 (14:00) 17.1 (00:00) 22.6 6.11 (11:40) 2.22 (14:40) 0 0 0 0 0
03-08-2019 29.3 (13:00) 17.8 (00:00) 23.5 5.56 (12:30) 1.94 (14:10) 0 0 0 0 0
02-08-2019 29.1 (15:20) 15.8 (00:00) 22.5 5.83 (14:10) 2.22 (14:20) 0 0 0 0 0
01-08-2019 28.4 (15:10) 15.6 (00:00) 22 6.67 (14:20) 1.94 (11:50) 0 0 0 0 0
31-07-2019 26.3 (15:20) 15.2 (00:00) 20.7 6.11 (13:20) 2.22 (00:50) 0 0 0 0 0
30-07-2019 27.9 (14:00) 16.1 (00:00) 22 10.28 (00:20) 3.89 (00:20) 0 0 0 0 0
29-07-2019 -- (--) -- (--) -- -- (--) -- (--) -- 0 -- 0 0
28-07-2019 32.1 (15:00) 19.5 (00:00) 25.8 5.56 (15:20) 2.22 (11:30) 0 0 0 0 0
27-07-2019 31.3 (12:20) 22.4 (00:00) 26.8 5.56 (13:40) 1.94 (12:30) 0 0 0 0 0
26-07-2019 35 (14:50) 22.6 (00:00) 28.8 5.56 (14:50) 2.5 (03:10) 0 0 0 0 0
25-07-2019 36.4 (15:30) 20.7 (00:00) 28.6 5.56 (12:20) 2.5 (08:10) 0 0 0 0 0
24-07-2019 33.9 (16:30) 19.4 (00:00) 26.7 6.11 (16:10) 2.5 (00:20) 0 0 0 0 0
23-07-2019 31.2 (14:50) 20.1 (00:00) 25.7 5.56 (12:20) 2.22 (13:40) 0 0 0 0 0
22-07-2019 32.6 (15:10) 20.6 (00:00) 26.6 6.11 (14:00) 2.22 (12:50) 0 0 0 0 0
21-07-2019 31.3 (13:50) 19.8 (00:00) 25.5 5.56 (14:10) 2.22 (12:50) 0 0 0 0 0

Gráficas

Temp. máximas Temp. mínimas Temp. medias Precipitaciones Rachas de viento máximas Velocidades máximas media en intervalos de 10 minutos

Datos horarios

Fecha y hora oficial Temperatura (ºC) Velocidad del viento (km/h) Dirección del viento Racha (km/h) Dirección de racha Precipitación (mm) Presión (hPa) Tendencia (hPa) Humedad (%)
2019-08-19 23:00:00 30.3 10 Norte 35 Nordeste 0 -- -- 15
2019-08-19 22:00:00 30.3 14 Norte 34 Nordeste 0 -- -- 18
2019-08-19 21:00:00 30.6 9 Norte 35 Nordeste 0 -- -- 17
2019-08-19 20:00:00 29.9 6 Norte 21 Nordeste 0 -- -- 21
2019-08-19 19:00:00 31.8 5 Norte 23 Este 0 -- -- 21
2019-08-19 18:00:00 34.8 14 Nordeste 36 Nordeste 0 -- -- 18
2019-08-19 17:00:00 36.6 12 Este 32 Nordeste 0 -- -- 14
2019-08-19 16:00:00 38.2 8 Este 33 Sudoeste 0 -- -- 14
2019-08-19 15:00:00 37.2 11 Este 27 Sudeste 0 -- -- 15
2019-08-19 14:00:00 38.6 8 Este 21 Este 0 -- -- 13
2019-08-19 13:00:00 37.9 5 Este 23 Este 0 -- -- 14
2019-08-19 12:00:00 35.7 7 Este 24 Este 0 -- -- 14
2019-08-19 11:00:00 34.7 4 Sudeste 23 Este 0 -- -- 14
2019-08-19 10:00:00 33.3 6 Norte 46 Nordeste 0 -- -- 14
2019-08-19 09:00:00 32.2 19 Nordeste 44 Nordeste 0 -- -- 14
2019-08-19 08:00:00 30.9 18 Nordeste 45 Nordeste 0 -- -- 15
2019-08-19 07:00:00 30.9 26 Norte 46 Norte 0 -- -- 14
2019-08-19 06:00:00 30.9 24 Nordeste 54 Norte 0 -- -- 14
2019-08-19 05:00:00 31.3 28 Norte 49 Nordeste 0 -- -- 14
2019-08-19 04:00:00 31.1 24 Norte 54 Nordeste 0 -- -- 14
2019-08-19 03:00:00 31.7 28 Nordeste 49 Nordeste 0 -- -- 13
2019-08-19 02:00:00 31 14 Nordeste 38 Nordeste 0 -- -- 13
2019-08-19 01:00:00 31 7 Noroeste 23 Este 0 -- -- 13
2019-08-19 00:00:00 31.1 9 Sudoeste 62 Nordeste 0 -- -- 13
2019-08-18 23:00:00 31.6 36 Nordeste 62 Nordeste 0 -- -- 13
2019-08-18 22:00:00 31.8 32 Nordeste 63 Nordeste 0 -- -- 13
2019-08-18 21:00:00 32.3 25 Nordeste 43 Nordeste 0 -- -- 12
2019-08-18 20:00:00 33 18 Nordeste 46 Nordeste 0 -- -- 12
2019-08-18 19:00:00 33.5 24 Nordeste 48 Nordeste 0 -- -- 12
2019-08-18 18:00:00 34.3 24 Nordeste 44 Nordeste 0 -- -- 12
2019-08-18 17:00:00 36 14 Nordeste 43 Nordeste 0 -- -- 11
2019-08-18 16:00:00 34.4 18 Nordeste 51 Nordeste 0 -- -- 12
2019-08-18 15:00:00 36.2 15 Nordeste 46 Nordeste 0 -- -- 11
2019-08-18 14:00:00 35.2 22 Nordeste 46 Nordeste 0 -- -- 12
2019-08-18 13:00:00 37.2 19 Nordeste 50 Nordeste 0 -- -- 11
2019-08-18 12:00:00 36.9 25 Nordeste 45 Nordeste 0 -- -- 11
2019-08-18 11:00:00 36.7 18 Nordeste 45 Nordeste 0 -- -- 11
2019-08-18 10:00:00 35 24 Nordeste 47 Nordeste 0 -- -- 12
2019-08-18 09:00:00 33.2 19 Nordeste 44 Nordeste 0 -- -- 12
2019-08-18 08:00:00 32.7 23 Nordeste 46 Nordeste 0 -- -- 12
2019-08-18 07:00:00 32.8 22 Nordeste 51 Nordeste 0 -- -- 12
2019-08-18 06:00:00 32.9 32 Nordeste 54 Nordeste 0 -- -- 13
2019-08-18 05:00:00 32.8 31 Nordeste 50 Nordeste 0 -- -- 14
2019-08-18 04:00:00 32.3 24 Nordeste 46 Nordeste 0 -- -- 15
2019-08-18 03:00:00 32.3 30 Nordeste 51 Nordeste 0 -- -- 14
2019-08-18 02:00:00 32.1 24 Nordeste 55 Nordeste 0 -- -- 14
2019-08-18 01:00:00 32.2 26 Nordeste 49 Nordeste 0 -- -- 13
2019-08-18 00:00:00 32 28 Nordeste 49 Nordeste 0 -- -- 13
2019-08-17 23:00:00 32.4 23 Nordeste 49 Nordeste 0 -- -- 13
2019-08-17 22:00:00 32.5 27 Nordeste 48 Norte 0 -- -- 13
2019-08-17 21:00:00 32.7 25 Nordeste 44 Nordeste 0 -- -- 13
2019-08-17 20:00:00 33.5 21 Nordeste 39 Nordeste 0 -- -- 13
2019-08-17 19:00:00 35 12 Nordeste 35 Este 0 -- -- 13
2019-08-17 18:00:00 36.3 19 Este 40 Este 0 -- -- 13
2019-08-17 17:00:00 37.1 17 Este 45 Nordeste 0 -- -- 13
2019-08-17 16:00:00 37.8 22 Este 43 Nordeste 0 -- -- 13
2019-08-17 15:00:00 37.6 21 Nordeste 49 Nordeste 0 -- -- 13
2019-08-17 14:00:00 37.2 23 Nordeste 49 Nordeste 0 -- -- 13
2019-08-17 13:00:00 37.1 25 Nordeste 54 Nordeste 0 -- -- 12
2019-08-17 12:00:00 37.2 25 Nordeste 46 Este 0 -- -- 12
2019-08-17 11:00:00 37 20 Nordeste 51 Nordeste 0 -- -- 11
2019-08-17 10:00:00 35.4 22 Nordeste 44 Este 0 -- -- 12
2019-08-17 09:00:00 33.3 17 Nordeste 48 Nordeste 0 -- -- 12
2019-08-17 08:00:00 32.5 23 Nordeste 51 Nordeste 0 -- -- 13
2019-08-17 07:00:00 32.1 30 Nordeste 54 Nordeste 0 -- -- 12
2019-08-17 06:00:00 32.2 22 Nordeste 50 Nordeste 0 -- -- 13
2019-08-17 05:00:00 30.8 11 Nordeste 39 Nordeste 0 -- -- 14
2019-08-17 04:00:00 32.2 13 Nordeste 46 Nordeste 0 -- -- 13
2019-08-17 03:00:00 32.5 24 Nordeste 41 Norte 0 -- -- 14
2019-08-17 02:00:00 33 18 Nordeste 40 Nordeste 0 -- -- 15
2019-08-17 01:00:00 32.9 21 Nordeste 39 Nordeste 0 -- -- 15
2019-08-17 00:00:00 33 15 Nordeste 28 Norte 0 -- -- 16
2019-08-16 23:00:00 33.1 9 Nordeste 26 Norte 0 -- -- 17
2019-08-16 22:00:00 32.8 5 Nordeste 17 Nordeste 0 -- -- 18
2019-08-16 21:00:00 32.8 4 Oeste 10 Sudoeste 0 -- -- 21
2019-08-16 20:00:00 34.3 5 Sur 12 Sudeste 0 -- -- 22
2019-08-16 19:00:00 36.4 4 Este 14 Sudeste 0 -- -- 21
2019-08-16 18:00:00 37.7 4 Este 16 Sudeste 0 -- -- 20
2019-08-16 17:00:00 38.1 4 Este 15 Sur 0 -- -- 19
2019-08-16 16:00:00 37.4 5 Este 19 Este 0 -- -- 26
2019-08-16 15:00:00 40.5 4 Nordeste 22 Este 0 -- -- 24
2019-08-16 14:00:00 40.5 8 Este 22 Este 0 -- -- 17
2019-08-16 13:00:00 39.7 5 Este 20 Este 0 -- -- 17
2019-08-16 12:00:00 38.3 6 Este 17 Nordeste 0 -- -- 17
2019-08-16 11:00:00 36.2 3 Este 12 Este 0 -- -- 17
2019-08-16 10:00:00 34.2 4 Este 9 Sudeste 0 -- -- 17
2019-08-16 09:00:00 32.1 4 Sur 19 Sudoeste 0 -- -- 16
2019-08-16 08:00:00 30 7 Sur 12 Sur 0 -- -- 15
2019-08-16 07:00:00 28.2 6 Sur 17 Sur 0 -- -- 17
2019-08-16 06:00:00 26.9 5 Oeste 12 Oeste 0 -- -- 18
2019-08-16 05:00:00 26.6 7 Sudoeste 11 Sudoeste 0 -- -- 22
2019-08-16 04:00:00 26.7 4 Oeste 10 Sur 0 -- -- 22
2019-08-16 03:00:00 26 6 Oeste 8 Oeste 0 -- -- 26
2019-08-16 02:00:00 26.7 2 Sudoeste 10 Sudeste 0 -- -- 27
2019-08-16 01:00:00 27.8 4 Oeste 6 Sudeste 0 -- -- 20
2019-08-16 00:00:00 27.6 2 Oeste 12 Noroeste 0 -- -- 22
2019-08-15 23:00:00 28.5 5 Sudeste 10 Sudeste 0 -- -- 28
2019-08-15 22:00:00 27.8 2 Sudeste 8 Oeste 0 -- -- 34
2019-08-15 21:00:00 27.6 4 Oeste 6 Este 0 -- -- 37
2019-08-15 20:00:00 29 3 Este 7 Sudeste 0 -- -- 36
2019-08-15 19:00:00 30.5 3 Este 10 Este 0 -- -- 34
2019-08-15 18:00:00 32.4 4 Este 15 Este 0 -- -- 33
2019-08-15 17:00:00 32.7 5 Este 15 Este 0 -- -- 34
2019-08-15 16:00:00 34.7 6 Este 17 Nordeste 0 -- -- 30
2019-08-15 15:00:00 35.1 5 Este 18 Nordeste 0 -- -- 28
2019-08-15 14:00:00 33.8 6 Este 17 Este 0 -- -- 29
2019-08-15 13:00:00 33.9 7 Este 19 Este 0 -- -- 28
2019-08-15 12:00:00 33.3 5 Este 15 Este 0 -- -- 22
2019-08-15 11:00:00 30.3 5 Nordeste 12 Este 0 -- -- 20
2019-08-15 10:00:00 28.8 4 Este 10 Nordeste 0 -- -- 22
2019-08-15 09:00:00 24.9 0 Calma 5 Noroeste 0 -- -- 23
2019-08-15 08:00:00 22.5 4 Noroeste 6 Noroeste 0 -- -- 22
2019-08-15 07:00:00 22.7 5 Sudoeste 6 Sudoeste 0 -- -- 22
2019-08-15 06:00:00 22.5 2 Oeste 6 Noroeste 0 -- -- 24
2019-08-15 05:00:00 22 4 Noroeste 4 Noroeste 0 -- -- 26
2019-08-15 04:00:00 22.3 3 Oeste 6 Oeste 0 -- -- 26
2019-08-15 03:00:00 22.7 4 Sudoeste 6 Sudoeste 0 -- -- 24
2019-08-15 02:00:00 22.4 2 Noroeste 6 Sudoeste 0 -- -- 27
2019-08-15 01:00:00 22.5 2 Oeste 7 Oeste 0 -- -- 31
2019-08-15 00:00:00 23.6 5 Sudeste 8 Oeste 0 -- -- 31
2019-08-14 23:00:00 24.2 4 Sur 8 Noroeste 0 -- -- 28
2019-08-14 22:00:00 23.1 6 Oeste 8 Oeste 0 -- -- 36
2019-08-14 21:00:00 23.6 3 Oeste 6 Oeste 0 -- -- 41
2019-08-14 20:00:00 24.6 3 Este 11 Este 0 -- -- 41
2019-08-14 19:00:00 27 4 Este 10 Sudeste 0 -- -- 36
2019-08-14 18:00:00 28.8 6 Sudeste 14 Sudeste 0 -- -- 33
2019-08-14 17:00:00 30.8 5 Este 16 Este 0 -- -- 30
2019-08-14 16:00:00 30.8 6 Este 20 Este 0 -- -- 25
2019-08-14 15:00:00 31 6 Este 19 Este 0 -- -- 26
2019-08-14 14:00:00 30.4 6 Este 19 Sudeste 0 -- -- 29
2019-08-14 13:00:00 30.3 7 Este 18 Este 0 -- -- 25
2019-08-14 12:00:00 29.2 6 Este 18 Este 0 -- -- 25
2019-08-14 11:00:00 28.4 4 Este 14 Este 0 -- -- 23
2019-08-14 10:00:00 26.6 4 Este 12 Este 0 -- -- 28
2019-08-14 09:00:00 22.7 4 Nordeste 9 Nordeste 0 -- -- 33
2019-08-14 08:00:00 19.7 3 Oeste 5 Sudoeste 0 -- -- 39
2019-08-14 07:00:00 19.3 3 Oeste 5 Oeste 0 -- -- 40
2019-08-14 06:00:00 20.1 2 Sudeste 5 Oeste 0 -- -- 39
2019-08-14 05:00:00 20.7 2 Sur 4 Sudeste 0 -- -- 39
2019-08-14 04:00:00 21 0 Calma 5 Sudoeste 0 -- -- 40
2019-08-14 03:00:00 20 3 Oeste 7 Noroeste 0 -- -- 45
2019-08-14 02:00:00 19.9 3 Noroeste 5 Noroeste 0 -- -- 46
2019-08-14 01:00:00 20.7 2 Sudeste 4 Este 0 -- -- 49
2019-08-14 00:00:00 20.8 3 Sudeste 6 Oeste 0 -- -- 51
2019-08-13 23:00:00 20.6 3 Oeste 5 Noroeste 0 -- -- 59
2019-08-13 22:00:00 21.2 2 Este 9 Oeste 0 -- -- 59
2019-08-13 21:00:00 21.7 3 Este 8 Sur 0 -- -- 57
2019-08-13 20:00:00 23.7 2 Nordeste 9 Este 0 -- -- 51
2019-08-13 19:00:00 25.3 4 Este 16 Sur 0 -- -- 48
2019-08-13 18:00:00 29 5 Sudeste 15 Sudeste 0 -- -- 39
2019-08-13 17:00:00 30.1 5 Este 19 Sudeste 0 -- -- 35
2019-08-13 16:00:00 31.2 4 Este 16 Este 0 -- -- 34
2019-08-13 15:00:00 30.5 6 Sudeste 18 Sudeste 0 -- -- 35
2019-08-13 14:00:00 31.4 6 Este 18 Este 0 -- -- 34
2019-08-13 13:00:00 31.8 4 Nordeste 22 Este 0 -- -- 32
2019-08-13 12:00:00 30.9 6 Este 18 Nordeste 0 -- -- 31
2019-08-13 11:00:00 29.5 6 Nordeste 18 Este 0 -- -- 25
2019-08-13 10:00:00 27 6 Este 17 Sudeste 0 -- -- 27
2019-08-13 09:00:00 25.7 7 Este 21 Este 0 -- -- 27
2019-08-13 08:00:00 24.2 5 Sudeste 19 Nordeste 0 -- -- 34
2019-08-13 07:00:00 24.7 8 Este 23 Nordeste 0 -- -- 34
2019-08-13 06:00:00 23.3 4 Sur 22 Sur 0 -- -- 34
2019-08-13 05:00:00 23.8 5 Sudeste 18 Sudeste 0 -- -- 33
2019-08-13 04:00:00 23.3 5 Sudeste 25 Este 0 -- -- 34
2019-08-13 03:00:00 25.1 12 Sudeste 27 Este 0 -- -- 34
2019-08-13 02:00:00 24.5 9 Sur 33 Este 0 -- -- 36
2019-08-13 01:00:00 24.9 11 Sur 22 Sudeste 0 -- -- 32
2019-08-13 00:00:00 23.5 8 Sudoeste 18 Sudoeste 0 -- -- 38
2019-08-12 23:00:00 23 4 Sudeste 19 Sur 0 -- -- 44
2019-08-12 22:00:00 24.3 10 Sudeste 24 Sudeste 0 -- -- 34
2019-08-12 21:00:00 22.7 4 Sur 9 Nordeste 0 -- -- 50
2019-08-12 20:00:00 24.9 4 Este 17 Sudeste 0 -- -- 44
2019-08-12 19:00:00 27.5 6 Sudeste 23 Sudeste 0 -- -- 41
2019-08-12 18:00:00 29.7 7 Sudeste 18 Este 0 -- -- 27
2019-08-12 17:00:00 30.6 6 Este 22 Sudeste 0 -- -- 27
2019-08-12 16:00:00 30.6 7 Nordeste 24 Norte 0 -- -- 21
2019-08-12 15:00:00 31.8 4 Norte 25 Sur 0 -- -- 21
2019-08-12 14:00:00 31 7 Sudeste 19 Sudeste 0 -- -- 19
2019-08-12 13:00:00 30.9 6 Sudeste 20 Sudeste 0 -- -- 28
2019-08-12 12:00:00 29.2 9 Sur 19 Sur 0 -- -- 27
2019-08-12 11:00:00 28.8 4 Sur 24 Nordeste 0 -- -- 27
2019-08-12 10:00:00 28 8 Nordeste 25 Sudoeste 0 -- -- 26
2019-08-12 09:00:00 26.6 10 Nordeste 27 Nordeste 0 -- -- 25
2019-08-12 08:00:00 23.8 4 Sudeste 38 Nordeste 0 -- -- 30
2019-08-12 07:00:00 24.2 9 Norte 41 Nordeste 0 -- -- 30
2019-08-12 06:00:00 24.4 10 Norte 38 Nordeste 0 -- -- 28
2019-08-12 05:00:00 24.6 10 Este 29 Noroeste 0 -- -- 21
2019-08-12 04:00:00 24 13 Nordeste 34 Este 0 -- -- 24
2019-08-12 03:00:00 24.9 16 Nordeste 36 Nordeste 0 -- -- 20
2019-08-12 02:00:00 24.6 6 Norte 21 Sudeste 0 -- -- 19
2019-08-12 01:00:00 24.8 10 Este 24 Este 0 -- -- 20
2019-08-12 00:00:00 24.5 6 Sudeste 29 Nordeste 0 -- -- 22
2019-08-11 23:00:00 24.2 5 Este 22 Este 0 -- -- 25
2019-08-11 22:00:00 22.5 5 Sudeste 14 Este 0 -- -- 43
2019-08-11 21:00:00 23.3 4 Sudoeste 9 Oeste 0 -- -- 37
2019-08-11 20:00:00 24.4 3 Este 8 Este 0 -- -- 57
2019-08-11 19:00:00 26.3 4 Este 14 Este 0 -- -- 53
2019-08-11 18:00:00 29.2 6 Este 15 Sudeste 0 -- -- 49
2019-08-11 17:00:00 30.7 5 Este 17 Sudeste 0 -- -- 45
2019-08-11 16:00:00 32.3 7 Este 21 Sudeste 0 -- -- 41
2019-08-11 15:00:00 33 4 Este 19 Este 0 -- -- 39
2019-08-11 14:00:00 33.1 4 Sudeste 20 Este 0 -- -- 37
2019-08-11 13:00:00 33.5 5 Este 19 Sudeste 0 -- -- 35
2019-08-11 12:00:00 31.7 5 Este 14 Este 0 -- -- 33
2019-08-11 11:00:00 29.1 5 Nordeste 18 Este 0 -- -- 33
2019-08-11 10:00:00 28.9 5 Nordeste 17 Este 0 -- -- 32
2019-08-11 09:00:00 25.3 4 Sur 12 Sudeste 0 -- -- 31
2019-08-11 08:00:00 23 4 Sudeste 13 Sudeste 0 -- -- 32
2019-08-11 07:00:00 23.4 4 Sudeste 14 Sur 0 -- -- 30
2019-08-11 06:00:00 22.9 7 Oeste 11 Oeste 0 -- -- 28
2019-08-11 05:00:00 24.1 3 Sudoeste 8 Sudeste 0 -- -- 26
2019-08-11 04:00:00 23.8 3 Noroeste 8 Oeste 0 -- -- 28
2019-08-11 03:00:00 23.6 5 Oeste 12 Nordeste 0 -- -- 36
2019-08-11 02:00:00 23.7 5 Oeste 13 Este 0 -- -- 51
2019-08-11 01:00:00 24.5 3 Sudoeste 9 Sur 0 -- -- 37
2019-08-11 00:00:00 24.2 4 Sur 9 Oeste 0 -- -- 55
2019-08-10 23:00:00 24.2 5 Oeste 9 Noroeste 0 -- -- 54
2019-08-10 22:00:00 24.2 4 Sur 10 Sur 0 -- -- 60
2019-08-10 21:00:00 24.3 3 Nordeste 8 Este 0 -- -- 60
2019-08-10 20:00:00 26.1 3 Sudeste 8 Sudeste 0 -- -- 55
2019-08-10 19:00:00 27.5 5 Este 12 Este 0 -- -- 52
2019-08-10 18:00:00 29.4 4 Este 14 Este 0 -- -- 48
2019-08-10 17:00:00 30 4 Este 18 Este 0 -- -- 46
2019-08-10 16:00:00 32.1 5 Este 19 Este 0 -- -- 41
2019-08-10 15:00:00 32.4 5 Este 20 Este 0 -- -- 41
2019-08-10 14:00:00 32.5 9 Este 18 Este 0 -- -- 38
2019-08-10 13:00:00 32.3 8 Este 16 Este 0 -- -- 34
2019-08-10 12:00:00 31.6 7 Este 16 Sudeste 0 -- -- 31
2019-08-10 11:00:00 30.4 6 Este 16 Este 0 -- -- 33
2019-08-10 10:00:00 28.7 5 Este 13 Nordeste 0 -- -- 39
2019-08-10 09:00:00 26.8 2 Este 7 Este 0 -- -- 41
2019-08-10 08:00:00 25.4 3 Este 5 Oeste 0 -- -- 38
2019-08-10 07:00:00 25.9 0 Calma 5 Este 0 -- -- 35
2019-08-10 06:00:00 26.6 2 Norte 6 Este 0 -- -- 34
2019-08-10 05:00:00 26.8 2 Norte 6 Nordeste 0 -- -- 38
2019-08-10 04:00:00 27.2 2 Este 9 Norte 0 -- -- 36
2019-08-10 03:00:00 26.1 3 Sur 7 Oeste 0 -- -- 40
2019-08-10 02:00:00 25.5 4 Oeste 8 Noroeste 0 -- -- 47
2019-08-10 01:00:00 25.1 5 Noroeste 7 Oeste 0 -- -- 51
2019-08-10 00:00:00 25.5 2 Nordeste 9 Sudoeste 0 -- -- 52
2019-08-09 23:00:00 25.7 3 Sudoeste 6 Oeste 0 -- -- 51
2019-08-09 22:00:00 25.3 2 Noroeste 4 Noroeste 0 -- -- 54
2019-08-09 21:00:00 25.3 2 Sudoeste 6 Este 0 -- -- 57
2019-08-09 20:00:00 26 4 Este 8 Este 0 -- -- 54
2019-08-09 19:00:00 27.9 4 Este 10 Este 0 -- -- 48
2019-08-09 18:00:00 30.1 5 Este 15 Este 0 -- -- 40
2019-08-09 17:00:00 31.2 5 Este 15 Sudeste 0 -- -- 42
2019-08-09 16:00:00 31.4 7 Este 19 Este 0 -- -- 41
2019-08-09 15:00:00 33.8 6 Este 19 Este 0 -- -- 36
2019-08-09 14:00:00 32.7 5 Este 15 Este 0 -- -- 38
2019-08-09 13:00:00 30.5 6 Este 14 Este 0 -- -- 42
2019-08-09 12:00:00 30.8 6 Este 14 Este 0 -- -- 38
2019-08-09 11:00:00 29 4 Nordeste 15 Este 0 -- -- 31
2019-08-09 10:00:00 29.9 6 Norte 19 Noroeste 0 -- -- 26
2019-08-09 09:00:00 27.7 3 Norte 11 Noroeste 0 -- -- 24
2019-08-09 08:00:00 25.3 4 Noroeste 8 Oeste 0 -- -- 26
2019-08-09 07:00:00 26.1 4 Sur 9 Sudeste 0 -- -- 22
2019-08-09 06:00:00 25.4 3 Este 10 Noroeste 0 -- -- 21
2019-08-09 05:00:00 25 3 Sur 6 Sudoeste 0 -- -- 23
2019-08-09 04:00:00 25.1 0 Calma 9 Sudeste 0 -- -- 24
2019-08-09 03:00:00 24.8 3 Sudoeste 6 Sudoeste 0 -- -- 31
2019-08-09 02:00:00 24.5 3 Sudoeste 5 Oeste 0 -- -- 36
2019-08-09 01:00:00 23.9 4 Oeste 8 Noroeste 0 -- -- 41
2019-08-09 00:00:00 23.9 0 Calma 7 Noroeste 0 -- -- 45
2019-08-08 23:00:00 24.1 4 Noroeste 8 Noroeste 0 -- -- 48
2019-08-08 22:00:00 25 3 Sudoeste 6 Sur 0 -- -- 51
2019-08-08 21:00:00 25.5 2 Sudoeste 6 Sudoeste 0 -- -- 58
2019-08-08 20:00:00 26.1 0 Calma 10 Este 0 -- -- 57
2019-08-08 19:00:00 27.9 4 Este 12 Este 0 -- -- 52
2019-08-08 18:00:00 30.6 4 Este 13 Este 0 -- -- 46
2019-08-08 17:00:00 30.9 6 Este 15 Este 0 -- -- 46
2019-08-08 16:00:00 30.9 4 Este 15 Este 0 -- -- 46
2019-08-08 15:00:00 31.4 6 Este 15 Sudeste 0 -- -- 44
2019-08-08 14:00:00 30.7 4 Este 17 Este 0 -- -- 44
2019-08-08 13:00:00 31.7 5 Sudeste 15 Este 0 -- -- 36
2019-08-08 12:00:00 30.1 3 Nordeste 15 Este 0 -- -- 28
2019-08-08 11:00:00 27.9 4 Este 14 Este 0 -- -- 22
2019-08-08 10:00:00 26.6 3 Norte 9 Este 0 -- -- 27
2019-08-08 09:00:00 25.4 2 Este 12 Noroeste 0 -- -- 21
2019-08-08 08:00:00 23.1 4 Sur 9 Sudeste 0 -- -- 21
2019-08-08 07:00:00 23.6 4 Sudoeste 12 Oeste 0 -- -- 20
2019-08-08 06:00:00 21.7 4 Oeste 6 Sudeste 0 -- -- 31
2019-08-08 05:00:00 23.2 5 Sur 8 Sudeste 0 -- -- 37
2019-08-08 04:00:00 21.2 3 Oeste 9 Oeste 0 -- -- 49
2019-08-08 03:00:00 20.8 4 Oeste 8 Sudeste 0 -- -- 55
2019-08-08 02:00:00 21.4 2 Nordeste 5 Nordeste 0 -- -- 64
2019-08-08 01:00:00 22.6 3 Sur 10 Oeste 0 -- -- 55
2019-08-08 00:00:00 22.1 3 Norte 11 Noroeste 0 -- -- 55
2019-08-07 23:00:00 22.4 3 Sudeste 10 Noroeste 0 -- -- 62
2019-08-07 22:00:00 22.8 4 Sudeste 8 Sudeste 0 -- -- 64
2019-08-07 21:00:00 22.8 3 Noroeste 8 Este 0 -- -- 66
2019-08-07 20:00:00 23.8 2 Nordeste 9 Este 0 -- -- 62
2019-08-07 19:00:00 26 3 Este 12 Este 0 -- -- 56
2019-08-07 18:00:00 28 5 Este 18 Este 0 -- -- 49
2019-08-07 17:00:00 28.9 6 Este 17 Este 0 -- -- 46
2019-08-07 16:00:00 30 6 Este 18 Este 0 -- -- 41
2019-08-07 15:00:00 29.9 6 Este 19 Nordeste 0 -- -- 37
2019-08-07 14:00:00 31 4 Este 19 Este 0 -- -- 38
2019-08-07 13:00:00 29.9 5 Este 18 Este 0 -- -- 34
2019-08-07 12:00:00 28.3 4 Este 15 Este 0 -- -- 37
2019-08-07 11:00:00 26.7 5 Este 12 Este 0 -- -- 39
2019-08-07 10:00:00 25.5 5 Nordeste 10 Este 0 -- -- 34
2019-08-07 09:00:00 22.8 2 Nordeste 5 Este 0 -- -- 32
2019-08-07 08:00:00 20.5 2 Sur 6 Oeste 0 -- -- 34
2019-08-07 07:00:00 19.5 4 Oeste 9 Noroeste 0 -- -- 39
2019-08-07 06:00:00 19.6 6 Noroeste 9 Noroeste 0 -- -- 45
2019-08-07 05:00:00 19.7 2 Sur 8 Oeste 0 -- -- 46
2019-08-07 04:00:00 19.5 2 Sudoeste 7 Noroeste 0 -- -- 58
2019-08-07 03:00:00 19.4 3 Oeste 7 Oeste 0 -- -- 62
2019-08-07 02:00:00 19.7 4 Sudeste 6 Sudeste 0 -- -- 65
2019-08-07 01:00:00 19.7 2 Norte 6 Oeste 0 -- -- 66
2019-08-07 00:00:00 20.4 0 Calma 4 Este 0 -- -- 63
2019-08-06 23:00:00 21.2 2 Este 6 Sudeste 0 -- -- 61
2019-08-06 22:00:00 21.4 3 Noroeste 8 Oeste 0 -- -- 61
2019-08-06 21:00:00 21.2 5 Oeste 6 Oeste 0 -- -- 63
2019-08-06 20:00:00 22.5 3 Este 12 Este 0 -- -- 58
2019-08-06 19:00:00 24.7 4 Este 12 Este 0 -- -- 50
2019-08-06 18:00:00 27.8 4 Este 22 Sudeste 0 -- -- 41
2019-08-06 17:00:00 29.4 5 Sudeste 18 Sudeste 0 -- -- 37
2019-08-06 16:00:00 30.1 5 Este 22 Este 0 -- -- 35
2019-08-06 15:00:00 30.6 6 Este 18 Este 0 -- -- 32
2019-08-06 14:00:00 30.7 4 Este 17 Este 0 -- -- 31
2019-08-06 13:00:00 29.6 4 Este 19 Este 0 -- -- 37
2019-08-06 12:00:00 28.2 6 Este 16 Sudeste 0 -- -- 41
2019-08-06 11:00:00 24.9 5 Este 16 Este 0 -- -- 44
2019-08-06 10:00:00 23.7 6 Este 11 Este 0 -- -- 46
2019-08-06 09:00:00 20.6 2 Sudeste 9 Este 0 -- -- 41
2019-08-06 08:00:00 18.9 3 Este 6 Sudoeste 0 -- -- 36
2019-08-06 07:00:00 18.7 3 Oeste 8 Oeste 0 -- -- 33
2019-08-06 06:00:00 18.6 3 Oeste 7 Sudoeste 0 -- -- 34
2019-08-06 05:00:00 19.3 4 Oeste 6 Sudoeste 0 -- -- 35
2019-08-06 04:00:00 18.8 5 Oeste 7 Oeste 0 -- -- 42
2019-08-06 03:00:00 18.7 6 Oeste 8 Oeste 0 -- -- 44
2019-08-06 02:00:00 19 3 Noroeste 9 Noroeste 0 -- -- 44
2019-08-06 01:00:00 18.9 5 Noroeste 9 Noroeste 0 -- -- 48
2019-08-06 00:00:00 19.8 4 Oeste 10 Sudoeste 0 -- -- 51
2019-08-05 23:00:00 20.1 5 Sudoeste 8 Sudoeste 0 -- -- 51
2019-08-05 22:00:00 20.8 3 Sur 10 Sur 0 -- -- 54
2019-08-05 21:00:00 21.7 6 Sur 14 Sur 0 -- -- 46
2019-08-05 20:00:00 23.7 4 Sudoeste 22 Nordeste 0 -- -- 45
2019-08-05 19:00:00 25.2 13 Nordeste 29 Nordeste 0 -- -- 22
2019-08-05 18:00:00 26.3 13 Nordeste 36 Nordeste 0 -- -- 23
2019-08-05 17:00:00 26.7 17 Nordeste 37 Nordeste 0 -- -- 24
2019-08-05 16:00:00 27.7 14 Nordeste 41 Nordeste 0 -- -- 24
2019-08-05 15:00:00 28 14 Nordeste 41 Nordeste 0 -- -- 24
2019-08-05 14:00:00 27.7 6 Este 19 Este 0 -- -- 32
2019-08-05 13:00:00 25.6 7 Sudeste 18 Sur 0 -- -- 49
2019-08-05 12:00:00 27.5 4 Este 17 Este 0 -- -- 34
2019-08-05 11:00:00 25.6 5 Este 13 Este 0 -- -- 41
2019-08-05 10:00:00 23.2 3 Nordeste 11 Este 0 -- -- 41
2019-08-05 09:00:00 21.1 0 Calma 8 Nordeste 0 -- -- 41
2019-08-05 08:00:00 18.1 2 Oeste 6 Oeste 0 -- -- 32
2019-08-05 07:00:00 17.7 3 Oeste 9 Noroeste 0 -- -- 37
2019-08-05 06:00:00 16.1 3 Sur 8 Oeste 0 -- -- 51
2019-08-05 05:00:00 15.6 4 Sudoeste 10 Sudeste 0 -- -- 69
2019-08-05 04:00:00 17.5 4 Noroeste 6 Oeste 0 -- -- 44
2019-08-05 03:00:00 18.4 0 Calma 7 Oeste 0 -- -- 60
2019-08-05 02:00:00 17.7 4 Sudoeste 8 Oeste 0 -- -- 46
2019-08-05 01:00:00 18 5 Noroeste 8 Noroeste 0 -- -- 64
2019-08-05 00:00:00 17.7 4 Noroeste 8 Noroeste 0 -- -- 65
2019-08-04 23:00:00 17.2 2 Noroeste 9 Noroeste 0 -- -- 79
2019-08-04 22:00:00 17.9 2 Oeste 6 Este 0 -- -- 78
2019-08-04 21:00:00 19.5 3 Este 8 Este 0 -- -- 72
2019-08-04 20:00:00 21.6 4 Sudeste 8 Sudeste 0 -- -- 62
2019-08-04 19:00:00 23.4 4 Este 13 Sudeste 0 -- -- 56
2019-08-04 18:00:00 25.3 5 Sudeste 19 Este 0 -- -- 51
2019-08-04 17:00:00 26.8 6 Sudeste 20 Este 0 -- -- 47
2019-08-04 16:00:00 27.8 5 Sudeste 20 Este 0 -- -- 43
2019-08-04 15:00:00 26.7 6 Sudeste 20 Sudeste 0 -- -- 43
2019-08-04 14:00:00 28.1 6 Este 18 Sudeste 0 -- -- 39
2019-08-04 13:00:00 27.1 6 Sudeste 18 Sur 0 -- -- 40
2019-08-04 12:00:00 26.2 5 Este 22 Sudeste 0 -- -- 42
2019-08-04 11:00:00 25.8 7 Este 14 Este 0 -- -- 40
2019-08-04 10:00:00 24.3 4 Este 12 Este 0 -- -- 42
2019-08-04 09:00:00 20.1 2 Este 6 Nordeste 0 -- -- 56
2019-08-04 08:00:00 18.6 3 Oeste 8 Oeste 0 -- -- 52
2019-08-04 07:00:00 17.9 3 Oeste 7 Oeste 0 -- -- 58
2019-08-04 06:00:00 18 2 Sudoeste 6 Oeste 0 -- -- 63
2019-08-04 05:00:00 18 0 Calma 5 Sudoeste 0 -- -- 68
2019-08-04 04:00:00 18.1 0 Calma 7 Oeste 0 -- -- 68
2019-08-04 03:00:00 18.3 3 Oeste 6 Noroeste 0 -- -- 67
2019-08-04 02:00:00 18.7 4 Oeste 5 Sudoeste 0 -- -- 66
2019-08-04 01:00:00 19.3 3 Sudoeste 5 Oeste 0 -- -- 63
2019-08-04 00:00:00 19.4 0 Calma 4 Este 0 -- -- 67
2019-08-03 23:00:00 19.9 0 Calma 7 Oeste 0 -- -- 65
2019-08-03 22:00:00 20.1 2 Nordeste 4 Noroeste 0 -- -- 66
2019-08-03 21:00:00 20.3 0 Calma 5 Este 0 -- -- 67
2019-08-03 20:00:00 21.6 3 Este 9 Este 0 -- -- 62
2019-08-03 19:00:00 23.2 5 Este 17 Sudeste 0 -- -- 57
2019-08-03 18:00:00 26.5 5 Este 18 Sudeste 0 -- -- 49
2019-08-03 17:00:00 28.4 5 Sudeste 17 Sudeste 0 -- -- 45
2019-08-03 16:00:00 28.5 6 Este 17 Sudeste 0 -- -- 45
2019-08-03 15:00:00 28.1 6 Este 19 Este 0 -- -- 45
2019-08-03 14:00:00 28.3 5 Este 19 Este 0 -- -- 45
2019-08-03 13:00:00 29.3 5 Este 20 Sudeste 0 -- -- 43
2019-08-03 12:00:00 28.8 5 Este 17 Nordeste 0 -- -- 37
2019-08-03 11:00:00 26.8 6 Este 13 Nordeste 0 -- -- 39
2019-08-03 10:00:00 24.9 4 Nordeste 12 Nordeste 0 -- -- 37
2019-08-03 09:00:00 22.2 4 Nordeste 10 Noroeste 0 -- -- 40
2019-08-03 08:00:00 18.2 6 Noroeste 9 Noroeste 0 -- -- 43
2019-08-03 07:00:00 18.5 4 Oeste 6 Oeste 0 -- -- 44
2019-08-03 06:00:00 18.2 3 Sudoeste 6 Oeste 0 -- -- 47
2019-08-03 05:00:00 18.3 0 Calma 11 Noroeste 0 -- -- 51
2019-08-03 04:00:00 18 3 Noroeste 6 Noroeste 0 -- -- 59
2019-08-03 03:00:00 18.7 0 Calma 8 Noroeste 0 -- -- 61
2019-08-03 02:00:00 18.4 4 Oeste 5 Sudoeste 0 -- -- 65
2019-08-03 01:00:00 19.1 2 Noroeste 5 Noroeste 0 -- -- 65
2019-08-03 00:00:00 19.6 0 Calma 9 Noroeste 0 -- -- 65
2019-08-02 23:00:00 19.1 4 Oeste 6 Oeste 0 -- -- 71
2019-08-02 22:00:00 19 5 Oeste 6 Oeste 0 -- -- 72
2019-08-02 21:00:00 20.8 2 Nordeste 7 Este 0 -- -- 66
2019-08-02 20:00:00 23.2 3 Este 9 Este 0 -- -- 59
2019-08-02 19:00:00 24.9 4 Este 14 Este 0 -- -- 53
2019-08-02 18:00:00 26.5 5 Este 15 Sudeste 0 -- -- 49
2019-08-02 17:00:00 27.7 6 Este 15 Nordeste 0 -- -- 45
2019-08-02 16:00:00 28.9 5 Este 21 Este 0 -- -- 43
2019-08-02 15:00:00 28.8 4 Este 21 Este 0 -- -- 42
2019-08-02 14:00:00 27.6 7 Este 18 Este 0 -- -- 45
2019-08-02 13:00:00 27.6 6 Este 17 Este 0 -- -- 43
2019-08-02 12:00:00 25.9 6 Este 18 Este 0 -- -- 46
2019-08-02 11:00:00 24.3 5 Este 18 Este 0 -- -- 47
2019-08-02 10:00:00 24.2 5 Este 12 Nordeste 0 -- -- 39
2019-08-02 09:00:00 20.7 3 Nordeste 6 Nordeste 0 -- -- 41
2019-08-02 08:00:00 17.7 2 Este 5 Este 0 -- -- 47
2019-08-02 07:00:00 16.4 4 Sudoeste 6 Noroeste 0 -- -- 57
2019-08-02 06:00:00 16.2 0 Calma 5 Sur 0 -- -- 62
2019-08-02 05:00:00 17.8 3 Sudeste 6 Sur 0 -- -- 55
2019-08-02 04:00:00 19.2 0 Calma 4 Oeste 0 -- -- 38
2019-08-02 03:00:00 19 4 Oeste 6 Oeste 0 -- -- 50
2019-08-02 02:00:00 19.4 3 Noroeste 6 Noroeste 0 -- -- 48
2019-08-02 01:00:00 19.2 6 Noroeste 8 Noroeste 0 -- -- 47
2019-08-02 00:00:00 20 0 Calma 5 Oeste 0 -- -- 47
2019-08-01 23:00:00 20 0 Calma 7 Oeste 0 -- -- 51
2019-08-01 22:00:00 18.4 4 Noroeste 7 Noroeste 0 -- -- 70
2019-08-01 21:00:00 19.3 2 Norte 7 Sudeste 0 -- -- 69
2019-08-01 20:00:00 21.3 3 Este 8 Este 0 -- -- 62
2019-08-01 19:00:00 23.1 5 Este 12 Este 0 -- -- 58
2019-08-01 18:00:00 25.4 4 Este 18 Este 0 -- -- 51
2019-08-01 17:00:00 26.2 5 Este 19 Este 0 -- -- 49
2019-08-01 16:00:00 27.1 5 Este 19 Nordeste 0 -- -- 46
2019-08-01 15:00:00 27.8 4 Este 24 Este 0 -- -- 45
2019-08-01 14:00:00 26.1 5 Sudeste 19 Este 0 -- -- 48
2019-08-01 13:00:00 25.5 5 Sudeste 18 Este 0 -- -- 49
2019-08-01 12:00:00 24.1 6 Este 18 Sudeste 0 -- -- 51
2019-08-01 11:00:00 22.6 6 Este 13 Este 0 -- -- 53
2019-08-01 10:00:00 20 5 Este 10 Nordeste 0 -- -- 57
2019-08-01 09:00:00 17.2 0 Calma 8 Este 0 -- -- 57
2019-08-01 08:00:00 15.7 3 Nordeste 6 Noroeste 0 -- -- 56
2019-08-01 07:00:00 16.4 0 Calma 5 Este 0 -- -- 33
2019-08-01 06:00:00 17 2 Oeste 4 Oeste 0 -- -- 40
2019-08-01 05:00:00 17.1 0 Calma 6 Oeste 0 -- -- 40
2019-08-01 04:00:00 16.3 6 Oeste 9 Oeste 0 -- -- 38
2019-08-01 03:00:00 16.8 3 Noroeste 9 Noroeste 0 -- -- 41
2019-08-01 02:00:00 16.6 6 Noroeste 10 Noroeste 0 -- -- 45
2019-08-01 01:00:00 16.2 4 Oeste 8 Oeste 0 -- -- 61
2019-08-01 00:00:00 16.3 3 Noroeste 7 Oeste 0 -- -- 64
2019-07-31 23:00:00 16.7 0 Calma 5 Este 0 -- -- 74
2019-07-31 22:00:00 17.3 2 Noroeste 5 Oeste 0 -- -- 74
2019-07-31 21:00:00 18.1 2 Nordeste 5 Sudeste 0 -- -- 72
2019-07-31 20:00:00 19.4 4 Este 10 Este 0 -- -- 66
2019-07-31 19:00:00 21.3 5 Este 16 Sudeste 0 -- -- 60
2019-07-31 18:00:00 24 6 Sudeste 17 Sudeste 0 -- -- 52
2019-07-31 17:00:00 24.4 7 Sudeste 18 Sur 0 -- -- 51
2019-07-31 16:00:00 26 5 Este 17 Sudeste 0 -- -- 47
2019-07-31 15:00:00 26.2 5 Este 21 Este 0 -- -- 47
2019-07-31 14:00:00 25.3 6 Este 22 Sudeste 0 -- -- 50
2019-07-31 13:00:00 24.7 7 Este 19 Este 0 -- -- 54
2019-07-31 12:00:00 23.6 5 Este 18 Este 0 -- -- 56
2019-07-31 11:00:00 22.8 7 Este 15 Este 0 -- -- 56
2019-07-31 10:00:00 20.3 4 Nordeste 10 Este 0 -- -- 62
2019-07-31 09:00:00 18.1 3 Nordeste 10 Este 0 -- -- 61
2019-07-31 08:00:00 16.2 3 Nordeste 9 Este 0 -- -- 60
2019-07-31 07:00:00 15.6 4 Nordeste 8 Noroeste 0 -- -- 58
2019-07-31 06:00:00 15.9 2 Norte 6 Oeste 0 -- -- 59
2019-07-31 05:00:00 15.4 3 Oeste 8 Noroeste 0 -- -- 60
2019-07-31 04:00:00 16.1 3 Norte 8 Nordeste 0 -- -- 73
2019-07-31 03:00:00 18.6 2 Sudeste 8 Sudoeste 0 -- -- 41
2019-07-31 02:00:00 18.4 4 Oeste 12 Sudoeste 0 -- -- 43
2019-07-31 01:00:00 16 2 Sudeste 10 Oeste 0 -- -- 74
2019-07-31 00:00:00 16.1 3 Noroeste 6 Sur 0 -- -- 87
2019-07-30 23:00:00 16.6 2 Noroeste 7 Oeste 0 -- -- 86
2019-07-30 22:00:00 17 2 Norte 6 Este 0 -- -- 86
2019-07-30 21:00:00 18.1 3 Este 9 Este 0 -- -- 80
2019-07-30 20:00:00 20 3 Este 10 Este 0 -- -- 72
2019-07-30 19:00:00 22.2 4 Este 13 Sudeste 0 -- -- 64
2019-07-30 18:00:00 24.8 4 Este 15 Sudeste 0 -- -- 55
2019-07-30 17:00:00 26.4 5 Este 21 Sudeste 0 -- -- 51
2019-07-30 16:00:00 27.1 6 Este 18 Sudeste 0 -- -- 48
2019-07-30 15:00:00 26.8 6 Sur 18 Sudeste 0 -- -- 50
2019-07-30 14:00:00 27.9 5 Este 18 Este 0 -- -- 48
2019-07-30 13:00:00 27.2 6 Este 21 Este 0 -- -- 47
2019-07-30 12:00:00 26.1 4 Noroeste 20 Este 0 -- -- 48
2019-07-30 11:00:00 25.7 6 Este 15 Este 0 -- -- 47
2019-07-30 10:00:00 23.5 6 Este 12 Este 0 -- -- 46
2019-07-30 09:00:00 21.4 4 Este 13 Nordeste 0 -- -- 48
2019-07-30 08:00:00 17.7 5 Sur 10 Nordeste 0 -- -- 55
2019-07-30 07:00:00 18 2 Sudoeste 8 Sur 0 -- -- 49
2019-07-30 06:00:00 18.3 3 Noroeste 9 Oeste 0 -- -- 43
2019-07-30 05:00:00 19.4 4 Sudeste 12 Sur 0 -- -- 44
2019-07-30 04:00:00 18.7 5 Sudeste 13 Este 0 -- -- 49
2019-07-30 03:00:00 19.3 3 Nordeste 24 Nordeste 0 -- -- 54
2019-07-30 02:00:00 21.3 7 Nordeste 30 Nordeste 0 -- -- 41
2019-07-30 01:00:00 22.2 7 Nordeste 37 Nordeste 0 -- -- 38
2019-07-30 00:00:00 22.3 10 Nordeste 31 Nordeste 0 -- -- 41
2019-07-29 23:00:00 22.6 5 Oeste 24 Sudoeste 0 -- -- 33
2019-07-29 22:00:00 21.5 5 Noroeste 21 Este 0 -- -- 34
2019-07-29 21:00:00 20.5 3 Este 8 Sur 0 -- -- 66
2019-07-29 20:00:00 23.4 3 Nordeste 10 Sudeste 0 -- -- 50
2019-07-29 19:00:00 25.4 4 Este 22 Este 0 -- -- 44
2019-07-29 18:00:00 26.8 5 Sudeste 18 Este 0 -- -- 43
2019-07-29 17:00:00 28.7 4 Este 15 Sudeste 0 -- -- 39
2019-07-29 16:00:00 28.5 7 Sudeste 18 Sudeste 0 -- -- 42
2019-07-29 15:00:00 29.5 6 Este 22 Este 0 -- -- 36
2019-07-29 14:00:00 28.9 6 Este 23 Este 0 -- -- 41
2019-07-29 13:00:00 26.9 6 Sur 18 Este 0 -- -- 48
2019-07-29 12:00:00 27.3 5 Este -- -- -- -- -- 44
2019-07-29 11:00:00 -- -- -- -- -- -- -- -- --
2019-07-29 10:00:00 20.9 5 Este 13 Nordeste 0 -- -- 68
2019-07-29 09:00:00 20.4 4 Este 9 Este 0 -- -- 68
2019-07-29 08:00:00 18.6 2 Sur 5 Este 0 -- -- 65
2019-07-29 07:00:00 18.6 3 Sudeste 6 Sudoeste 0 -- -- 63
2019-07-29 06:00:00 18.6 0 Calma 7 Oeste 0 -- -- 63
2019-07-29 05:00:00 18.9 3 Este 9 Oeste 0 -- -- 63
2019-07-29 04:00:00 19.6 3 Este 8 Noroeste 0 -- -- 63
2019-07-29 03:00:00 20.1 4 Noroeste 12 Oeste 0 -- -- 59
2019-07-29 02:00:00 19.2 3 Sur 10 Este 0 -- -- 74
2019-07-29 01:00:00 18 3 Sudoeste 8 Oeste 0 -- -- 84
2019-07-29 00:00:00 19.5 2 Este 9 Sudeste 0 -- -- 80
2019-07-28 23:00:00 22 2 Este 12 Sur 0 -- -- 61
2019-07-28 22:00:00 21.9 5 Sudeste 10 Sudeste 0 -- -- 62
2019-07-28 21:00:00 20.9 2 Norte 7 Nordeste 0 -- -- 78
2019-07-28 20:00:00 23 2 Nordeste 11 Este 0 -- -- 69
2019-07-28 19:00:00 26 4 Este 14 Este 0 -- -- 58
2019-07-28 18:00:00 28 4 Este 15 Este 0 -- -- 51
2019-07-28 17:00:00 29.8 6 Este 19 Este 0 -- -- 47
2019-07-28 16:00:00 30.9 5 Este 20 Este 0 -- -- 43
2019-07-28 15:00:00 32.1 4 Nordeste 18 Sudeste 0 -- -- 41
2019-07-28 14:00:00 31.7 5 Este 16 Este 0 -- -- 38
2019-07-28 13:00:00 30.1 5 Este 17 Este 0 -- -- 40
2019-07-28 12:00:00 29.2 7 Este 15 Este 0 -- -- 42
2019-07-28 11:00:00 27.9 5 Este 13 Este 0 -- -- 36
2019-07-28 10:00:00 26.5 4 Nordeste 12 Este 0 -- -- 37
2019-07-28 09:00:00 24.3 3 Nordeste 9 Este 0 -- -- 36
2019-07-28 08:00:00 21.2 2 Noroeste 8 Sudoeste 0 -- -- 41
2019-07-28 07:00:00 20.9 4 Oeste 8 Noroeste 0 -- -- 40
2019-07-28 06:00:00 21.2 2 Oeste 6 Sudoeste 0 -- -- 42
2019-07-28 05:00:00 20.9 2 Sur 6 Oeste 0 -- -- 47
2019-07-28 04:00:00 20.8 3 Oeste 5 Oeste 0 -- -- 53
2019-07-28 03:00:00 21.3 2 Sudeste 6 Sudoeste 0 -- -- 58
2019-07-28 02:00:00 21.2 4 Oeste 6 Oeste 0 -- -- 58
2019-07-28 01:00:00 21.7 0 Calma 5 Oeste 0 -- -- 60
2019-07-28 00:00:00 22.7 3 Sudeste 4 Sudeste 0 -- -- 59
2019-07-27 23:00:00 22.5 4 Oeste 6 Sudoeste 0 -- -- 59
2019-07-27 22:00:00 22.5 2 Oeste 5 Oeste 0 -- -- 57
2019-07-26 11:00:00 -- -- -- -- -- -- -- -- --
2019-07-26 10:00:00 31.4 3 Nordeste 8 Sudeste 0 -- -- 20
2019-07-26 09:00:00 27.5 3 Noroeste 9 Noroeste 0 -- -- 19
2019-07-26 08:00:00 25.9 3 Sudeste 10 Oeste 0 -- -- 26
2019-07-26 07:00:00 25.7 3 Sudoeste 12 Noroeste 0 -- -- 27
2019-07-26 06:00:00 24.3 6 Sudoeste 9 Oeste 0 -- -- 31
2019-07-26 05:00:00 25.1 2 Norte 8 Sudeste 0 -- -- 32
2019-07-26 04:00:00 24 8 Oeste 19 Noroeste 0 -- -- 37
2019-07-26 03:00:00 23.2 4 Noroeste 8 Este 0 -- -- 42
2019-07-26 02:00:00 25.6 7 Sur 13 Sudoeste 0 -- -- 36
2019-07-26 01:00:00 24.7 7 Oeste 9 Oeste 0 -- -- 39
2019-07-26 00:00:00 25.4 6 Oeste 9 Oeste 0 -- -- 39
2019-07-25 23:00:00 26.2 3 Oeste 8 Oeste 0 -- -- 37
2019-07-25 22:00:00 26.2 6 Noroeste 9 Noroeste 0 -- -- 39
2019-07-25 21:00:00 27.4 0 Calma 4 Nordeste 0 -- -- 38
2019-07-25 20:00:00 28.4 3 Este 10 Este 0 -- -- 37
2019-07-25 19:00:00 31.6 5 Este 11 Este 0 -- -- 31
2019-07-25 18:00:00 33.3 6 Este 14 Sudeste 0 -- -- 28
2019-07-25 17:00:00 35.1 5 Este 15 Este 0 -- -- 23
2019-07-25 16:00:00 36 5 Este 20 Este 0 -- -- 22
2019-07-25 15:00:00 35.6 5 Este 18 Este 0 -- -- 13
2019-07-25 14:00:00 33.5 5 Nordeste 15 Este 0 -- -- 18
2019-07-25 13:00:00 34 6 Este 20 Sudeste 0 -- -- 21
2019-07-25 12:00:00 33 3 Nordeste 11 Este 0 -- -- 16
2019-07-25 11:00:00 30.5 5 Este 14 Este 0 -- -- 23
2019-07-25 10:00:00 27.9 4 Nordeste 10 Nordeste 0 -- -- 27
2019-07-25 09:00:00 25 4 Sur 15 Oeste 0 -- -- 30
2019-07-25 08:00:00 21.3 7 Noroeste 14 Noroeste 0 -- -- 38
2019-07-25 07:00:00 22.1 3 Sudoeste 10 Oeste 0 -- -- 28
2019-07-25 06:00:00 20.9 5 Noroeste 8 Noroeste 0 -- -- 42
2019-07-25 05:00:00 21.3 3 Oeste 7 Sudoeste 0 -- -- 44
2019-07-25 04:00:00 21.5 3 Sudeste 6 Oeste 0 -- -- 46
2019-07-25 03:00:00 22.2 2 Este 5 Oeste 0 -- -- 51
2019-07-25 02:00:00 22.3 4 Oeste 7 Noroeste 0 -- -- 44
2019-07-25 01:00:00 21.3 5 Noroeste 6 Oeste 0 -- -- 53
2019-07-25 00:00:00 22.2 2 Norte 6 Oeste 0 -- -- 56
2019-07-24 23:00:00 22.4 2 Sudeste 6 Oeste 0 -- -- 59
2019-07-24 22:00:00 22.7 3 Oeste 8 Noroeste 0 -- -- 57
2019-07-24 21:00:00 23.3 5 Noroeste 12 Sudoeste 0 -- -- 56
2019-07-24 20:00:00 24.8 7 Este 13 Sudeste 0 -- -- 53
2019-07-24 19:00:00 27.6 3 Este 11 Este 0 -- -- 45
2019-07-24 18:00:00 31 5 Este 14 Este 0 -- -- 33
2019-07-24 17:00:00 33.6 6 Este 22 Este 0 -- -- 18
2019-07-24 16:00:00 33.1 6 Este 16 Este 0 -- -- 27
2019-07-24 15:00:00 31.8 5 Este 20 Este 0 -- -- 31
2019-07-24 14:00:00 33 5 Este 17 Sur 0 -- -- 22
2019-07-24 13:00:00 31 7 Nordeste 19 Este 0 -- -- 23
2019-07-24 12:00:00 29.3 6 Este 16 Este 0 -- -- 28
2019-07-24 11:00:00 28.2 5 Este 14 Este 0 -- -- 24
2019-07-24 10:00:00 26.1 4 Este 13 Este 0 -- -- 28
2019-07-24 09:00:00 23.6 3 Este 8 Este 0 -- -- 28
2019-07-24 08:00:00 19.8 8 Noroeste 9 Noroeste 0 -- -- 29
2019-07-24 07:00:00 19.8 3 Oeste 5 Oeste 0 -- -- 27
2019-07-24 06:00:00 20.2 2 Sudoeste 8 Noroeste 0 -- -- 27
2019-07-24 05:00:00 20.3 2 Sudeste 9 Noroeste 0 -- -- 29
2019-07-24 04:00:00 20.1 4 Norte 9 Noroeste 0 -- -- 29
2019-07-24 03:00:00 20.6 3 Norte 9 Oeste 0 -- -- 29
2019-07-24 02:00:00 20.6 4 Oeste 11 Noroeste 0 -- -- 37
2019-07-24 01:00:00 22 5 Noroeste 13 Oeste 0 -- -- 39
2019-07-24 00:00:00 20.5 5 Noroeste 10 Noroeste 0 -- -- 58
2019-07-23 23:00:00 21 4 Nordeste 7 Noroeste 0 -- -- 56
2019-07-23 22:00:00 22.8 4 Este 6 Sudeste 0 -- -- 55
2019-07-23 21:00:00 23.1 4 Oeste 7 Oeste 0 -- -- 50
2019-07-23 20:00:00 24.4 2 Sudeste 9 Sudeste 0 -- -- 48
2019-07-23 19:00:00 26.1 5 Este 15 Este 0 -- -- 39
2019-07-23 18:00:00 29.2 4 Este 16 Sudeste 0 -- -- 31
2019-07-23 17:00:00 29.7 4 Este 18 Este 0 -- -- 39
2019-07-23 16:00:00 29.9 4 Este 18 Nordeste 0 -- -- 39
2019-07-23 15:00:00 31.2 5 Este 18 Este 0 -- -- 38
2019-07-23 14:00:00 30.8 6 Este 18 Este 0 -- -- 38
2019-07-23 13:00:00 29.8 7 Este 20 Este 0 -- -- 39
2019-07-23 12:00:00 28.5 6 Este 16 Este 0 -- -- 37
2019-07-23 11:00:00 26.7 4 Este 13 Este 0 -- -- 40
2019-07-23 10:00:00 26.5 4 Este 12 Este 0 -- -- 39
2019-07-23 09:00:00 24.1 3 Nordeste 9 Noroeste 0 -- -- 38
2019-07-23 08:00:00 20.3 8 Noroeste 10 Noroeste 0 -- -- 32
2019-07-23 07:00:00 20.7 0 Calma 6 Noroeste 0 -- -- 44
2019-07-23 06:00:00 20.5 3 Sudoeste 6 Oeste 0 -- -- 40
2019-07-23 05:00:00 21 2 Sudoeste 6 Sudeste 0 -- -- 54
2019-07-23 04:00:00 20.5 0 Calma 6 Noroeste 0 -- -- 53
2019-07-23 03:00:00 21.1 3 Sudeste 5 Oeste 0 -- -- 58
2019-07-23 02:00:00 21.1 4 Oeste 5 Noroeste 0 -- -- 55
2019-07-23 01:00:00 21 5 Oeste 10 Oeste 0 -- -- 61
2019-07-23 00:00:00 21.5 2 Oeste 5 Oeste 0 -- -- 62
2019-07-22 23:00:00 22.5 3 Sudeste 5 Este 0 -- -- 62
2019-07-22 22:00:00 22.9 2 Sur 8 Oeste 0 -- -- 60
2019-07-22 21:00:00 23.2 3 Este 4 Nordeste 0 -- -- 60
2019-07-22 20:00:00 24.4 3 Este 9 Este 0 -- -- 57
2019-07-22 19:00:00 26.2 4 Este 12 Este 0 -- -- 52
2019-07-22 18:00:00 28.6 6 Este 17 Este 0 -- -- 45
2019-07-22 17:00:00 31 5 Este 18 Este 0 -- -- 40
2019-07-22 16:00:00 31.7 6 Este 19 Sudeste 0 -- -- 36
2019-07-22 15:00:00 32.5 5 Este 18 Este 0 -- -- 35
2019-07-22 14:00:00 32.1 6 Este 22 Este 0 -- -- 36
2019-07-22 13:00:00 31.7 7 Este 21 Este 0 -- -- 36
2019-07-22 12:00:00 30.9 6 Este 18 Nordeste 0 -- -- 35
2019-07-22 11:00:00 29.1 6 Este 13 Nordeste 0 -- -- 35
2019-07-22 10:00:00 27.4 5 Este 12 Este 0 -- -- 34
2019-07-22 09:00:00 24.8 3 Nordeste 8 Este 0 -- -- 38
2019-07-22 08:00:00 21.7 2 Noroeste 6 Oeste 0 -- -- 30
2019-07-22 07:00:00 21.3 2 Sudoeste 8 Oeste 0 -- -- 31
2019-07-22 06:00:00 20.8 4 Oeste 6 Oeste 0 -- -- 42
2019-07-22 05:00:00 20.9 2 Oeste 7 Noroeste 0 -- -- 44
2019-07-22 04:00:00 20.6 5 Noroeste 8 Noroeste 0 -- -- 41
2019-07-22 03:00:00 20.8 6 Noroeste 9 Noroeste 0 -- -- 47
2019-07-22 02:00:00 21 3 Sudoeste 5 Oeste 0 -- -- 64
2019-07-22 01:00:00 20.7 3 Oeste 5 Noroeste 0 -- -- 70
2019-07-22 00:00:00 21.2 3 Norte 7 Noroeste 0 -- -- 65
2019-07-21 23:00:00 21.9 2 Nordeste 6 Sudeste 0 -- -- 67
2019-07-21 22:00:00 22.8 3 Sudoeste 7 Oeste 0 -- -- 65
2019-07-21 21:00:00 23 2 Noroeste 4 Nordeste 0 -- -- 63
2019-07-21 20:00:00 24.1 2 Este 8 Este 0 -- -- 60
2019-07-21 19:00:00 25.6 4 Este 13 Sudeste 0 -- -- 56
2019-07-21 18:00:00 29 4 Este 14 Nordeste 0 -- -- 48
2019-07-21 17:00:00 30.2 5 Este 19 Nordeste 0 -- -- 44
2019-07-21 16:00:00 29.5 7 Este 19 Este 0 -- -- 44
2019-07-21 15:00:00 29.9 5 Este 20 Nordeste 0 -- -- 45
2019-07-21 14:00:00 31.2 5 Este 19 Este 0 -- -- 40
2019-07-21 13:00:00 30 6 Este 18 Este 0 -- -- 36
2019-07-21 12:00:00 28 7 Este 15 Sudeste 0 -- -- 37
2019-07-21 11:00:00 26.5 5 Este 14 Este 0 -- -- 43
2019-07-21 10:00:00 26 4 Este 9 Este 0 -- -- 32
2019-07-21 09:00:00 23.2 3 Este 6 Este 0 -- -- 34
2019-07-21 08:00:00 20.4 3 Sudoeste 6 Sudoeste 0 -- -- 33
2019-07-21 07:00:00 20.3 4 Sur 6 Oeste 0 -- -- 37
2019-07-21 06:00:00 20 4 Oeste 9 Sudoeste 0 -- -- 36
2019-07-21 05:00:00 20.1 4 Sudoeste 7 Sudoeste 0 -- -- 38
2019-07-21 04:00:00 20.1 6 Sudoeste 7 Sudoeste 0 -- -- 42
2019-07-21 03:00:00 20.4 0 Calma 6 Noroeste 0 -- -- 46
2019-07-21 02:00:00 20.7 3 Este 8 Noroeste 0 -- -- 53
2019-07-21 01:00:00 21 2 Sudeste 6 Oeste 0 -- -- 55
2019-07-21 00:00:00 20.7 4 Oeste 6 Este 0 -- -- 56